sensor_id;sensor_type;location;lat;lon;timestamp;temperature;humidity
33580;DHT22;19909;43.644;-79.438;2022-12-18T00:01:21;23.00;32.80
33580;DHT22;19909;43.644;-79.438;2022-12-18T00:03:47;23.00;32.70
33580;DHT22;19909;43.644;-79.438;2022-12-18T00:06:14;23.00;32.60
33580;DHT22;19909;43.644;-79.438;2022-12-18T00:08:41;23.10;32.70
33580;DHT22;19909;43.644;-79.438;2022-12-18T00:11:10;23.20;32.70
33580;DHT22;19909;43.644;-79.438;2022-12-18T00:13:37;23.20;32.60
33580;DHT22;19909;43.644;-79.438;2022-12-18T00:16:12;23.20;32.60
33580;DHT22;19909;43.644;-79.438;2022-12-18T00:18:39;23.30;32.50
33580;DHT22;19909;43.644;-79.438;2022-12-18T00:21:07;23.30;32.50
33580;DHT22;19909;43.644;-79.438;2022-12-18T00:23:35;23.40;32.40
33580;DHT22;19909;43.644;-79.438;2022-12-18T00:26:16;23.40;32.40
33580;DHT22;19909;43.644;-79.438;2022-12-18T00:28:43;23.50;32.40
33580;DHT22;19909;43.644;-79.438;2022-12-18T00:31:16;23.50;32.40
33580;DHT22;19909;43.644;-79.438;2022-12-18T00:33:42;23.50;32.90
33580;DHT22;19909;43.644;-79.438;2022-12-18T00:36:14;23.60;32.20
33580;DHT22;19909;43.644;-79.438;2022-12-18T00:38:41;23.60;32.20
33580;DHT22;19909;43.644;-79.438;2022-12-18T00:41:09;23.70;32.20
33580;DHT22;19909;43.644;-79.438;2022-12-18T00:43:37;23.70;32.10
33580;DHT22;19909;43.644;-79.438;2022-12-18T00:46:03;23.70;32.10
33580;DHT22;19909;43.644;-79.438;2022-12-18T00:48:30;23.80;32.10
33580;DHT22;19909;43.644;-79.438;2022-12-18T00:50:56;23.80;32.10
33580;DHT22;19909;43.644;-79.438;2022-12-18T00:53:23;23.80;32.00
33580;DHT22;19909;43.644;-79.438;2022-12-18T00:55:49;23.90;32.60
33580;DHT22;19909;43.644;-79.438;2022-12-18T00:58:16;24.00;32.00
33580;DHT22;19909;43.644;-79.438;2022-12-18T01:00:43;24.00;31.90
33580;DHT22;19909;43.644;-79.438;2022-12-18T01:03:11;24.00;31.90
33580;DHT22;19909;43.644;-79.438;2022-12-18T01:05:42;24.00;31.90
33580;DHT22;19909;43.644;-79.438;2022-12-18T01:08:10;24.10;31.90
33580;DHT22;19909;43.644;-79.438;2022-12-18T01:10:36;24.10;31.80
33580;DHT22;19909;43.644;-79.438;2022-12-18T01:13:02;24.20;31.90
33580;DHT22;19909;43.644;-79.438;2022-12-18T01:15:29;24.20;31.80
33580;DHT22;19909;43.644;-79.438;2022-12-18T01:17:55;24.20;31.70
33580;DHT22;19909;43.644;-79.438;2022-12-18T01:20:22;24.30;31.70
33580;DHT22;19909;43.644;-79.438;2022-12-18T01:22:48;24.30;31.70
33580;DHT22;19909;43.644;-79.438;2022-12-18T01:25:14;24.40;31.80
33580;DHT22;19909;43.644;-79.438;2022-12-18T01:27:40;24.40;31.60
33580;DHT22;19909;43.644;-79.438;2022-12-18T01:30:07;24.40;31.70
33580;DHT22;19909;43.644;-79.438;2022-12-18T01:32:33;24.40;31.60
33580;DHT22;19909;43.644;-79.438;2022-12-18T01:35:00;24.40;31.40
33580;DHT22;19909;43.644;-79.438;2022-12-18T01:37:26;24.30;31.40
33580;DHT22;19909;43.644;-79.438;2022-12-18T01:39:54;24.30;31.40
33580;DHT22;19909;43.644;-79.438;2022-12-18T01:42:21;24.20;31.50
33580;DHT22;19909;43.644;-79.438;2022-12-18T01:47:45;24.10;31.50
33580;DHT22;19909;43.644;-79.438;2022-12-18T01:50:39;24.00;31.40
33580;DHT22;19909;43.644;-79.438;2022-12-18T01:55:45;24.00;31.40
33580;DHT22;19909;43.644;-79.438;2022-12-18T01:58:13;23.90;31.40
33580;DHT22;19909;43.644;-79.438;2022-12-18T02:00:40;23.80;31.30
33580;DHT22;19909;43.644;-79.438;2022-12-18T02:03:06;23.80;31.30
33580;DHT22;19909;43.644;-79.438;2022-12-18T02:11:21;23.70;31.30
33580;DHT22;19909;43.644;-79.438;2022-12-18T02:16:34;23.50;31.40
33580;DHT22;19909;43.644;-79.438;2022-12-18T02:27:32;23.40;31.70
33580;DHT22;19909;43.644;-79.438;2022-12-18T02:30:01;23.40;32.20
33580;DHT22;19909;43.644;-79.438;2022-12-18T02:32:49;23.30;31.50
33580;DHT22;19909;43.644;-79.438;2022-12-18T02:35:23;23.30;31.60
33580;DHT22;19909;43.644;-79.438;2022-12-18T02:37:51;23.30;31.70
33580;DHT22;19909;43.644;-79.438;2022-12-18T02:40:18;23.30;31.70
33580;DHT22;19909;43.644;-79.438;2022-12-18T02:42:47;23.40;31.80
33580;DHT22;19909;43.644;-79.438;2022-12-18T02:45:13;23.40;31.70
33580;DHT22;19909;43.644;-79.438;2022-12-18T02:47:43;23.40;31.90
33580;DHT22;19909;43.644;-79.438;2022-12-18T02:50:21;23.40;32.00
33580;DHT22;19909;43.644;-79.438;2022-12-18T02:55:46;23.40;32.10
33580;DHT22;19909;43.644;-79.438;2022-12-18T02:58:20;23.40;32.10
33580;DHT22;19909;43.644;-79.438;2022-12-18T03:04:25;23.30;32.10
33580;DHT22;19909;43.644;-79.438;2022-12-18T03:07:04;23.30;32.10
33580;DHT22;19909;43.644;-79.438;2022-12-18T03:09:40;23.20;32.10
33580;DHT22;19909;43.644;-79.438;2022-12-18T03:12:14;23.20;31.90
33580;DHT22;19909;43.644;-79.438;2022-12-18T03:15:00;23.20;31.80
33580;DHT22;19909;43.644;-79.438;2022-12-18T03:17:32;23.10;31.50
33580;DHT22;19909;43.644;-79.438;2022-12-18T03:20:07;23.10;31.50
33580;DHT22;19909;43.644;-79.438;2022-12-18T03:22:37;23.10;31.70
33580;DHT22;19909;43.644;-79.438;2022-12-18T03:25:10;23.10;31.70
33580;DHT22;19909;43.644;-79.438;2022-12-18T03:27:41;23.10;31.90
33580;DHT22;19909;43.644;-79.438;2022-12-18T03:30:09;23.20;31.70
33580;DHT22;19909;43.644;-79.438;2022-12-18T03:33:02;23.20;32.50
33580;DHT22;19909;43.644;-79.438;2022-12-18T03:35:38;23.20;31.90
33580;DHT22;19909;43.644;-79.438;2022-12-18T03:38:06;23.30;31.90
33580;DHT22;19909;43.644;-79.438;2022-12-18T03:46:07;23.30;31.50
33580;DHT22;19909;43.644;-79.438;2022-12-18T03:48:48;23.20;31.40
33580;DHT22;19909;43.644;-79.438;2022-12-18T03:51:39;23.20;31.80
33580;DHT22;19909;43.644;-79.438;2022-12-18T03:54:09;23.20;31.70
33580;DHT22;19909;43.644;-79.438;2022-12-18T03:56:40;23.10;31.50
33580;DHT22;19909;43.644;-79.438;2022-12-18T03:59:11;23.10;31.50
33580;DHT22;19909;43.644;-79.438;2022-12-18T04:01:45;23.10;31.50
33580;DHT22;19909;43.644;-79.438;2022-12-18T04:04:13;23.10;31.60
33580;DHT22;19909;43.644;-79.438;2022-12-18T04:06:42;23.10;31.60
33580;DHT22;19909;43.644;-79.438;2022-12-18T04:09:09;23.10;31.50
33580;DHT22;19909;43.644;-79.438;2022-12-18T04:11:36;23.10;31.50
33580;DHT22;19909;43.644;-79.438;2022-12-18T04:14:10;23.20;31.70
33580;DHT22;19909;43.644;-79.438;2022-12-18T04:16:37;23.20;31.60
33580;DHT22;19909;43.644;-79.438;2022-12-18T04:19:04;23.30;31.70
33580;DHT22;19909;43.644;-79.438;2022-12-18T04:21:30;23.30;31.40
33580;DHT22;19909;43.644;-79.438;2022-12-18T04:23:56;23.30;31.20
33580;DHT22;19909;43.644;-79.438;2022-12-18T04:26:22;23.30;31.20
33580;DHT22;19909;43.644;-79.438;2022-12-18T04:28:48;23.30;31.20
33580;DHT22;19909;43.644;-79.438;2022-12-18T04:31:16;23.20;31.20
33580;DHT22;19909;43.644;-79.438;2022-12-18T04:33:42;23.20;31.10
33580;DHT22;19909;43.644;-79.438;2022-12-18T04:36:08;23.20;31.20
33580;DHT22;19909;43.644;-79.438;2022-12-18T04:38:39;23.10;31.10
33580;DHT22;19909;43.644;-79.438;2022-12-18T04:41:06;23.10;31.20
33580;DHT22;19909;43.644;-79.438;2022-12-18T04:43:32;23.10;31.20
33580;DHT22;19909;43.644;-79.438;2022-12-18T04:46:06;23.00;31.20
33580;DHT22;19909;43.644;-79.438;2022-12-18T04:48:34;23.00;31.20
33580;DHT22;19909;43.644;-79.438;2022-12-18T04:51:00;23.00;31.40
33580;DHT22;19909;43.644;-79.438;2022-12-18T04:53:27;23.00;31.40
33580;DHT22;19909;43.644;-79.438;2022-12-18T04:56:08;23.00;31.30
33580;DHT22;19909;43.644;-79.438;2022-12-18T04:58:35;23.00;31.20
33580;DHT22;19909;43.644;-79.438;2022-12-18T05:01:02;23.10;31.10
33580;DHT22;19909;43.644;-79.438;2022-12-18T05:03:29;23.10;31.00
33580;DHT22;19909;43.644;-79.438;2022-12-18T05:05:56;23.10;31.20
33580;DHT22;19909;43.644;-79.438;2022-12-18T05:08:22;23.10;31.30
33580;DHT22;19909;43.644;-79.438;2022-12-18T05:10:57;23.00;31.30
33580;DHT22;19909;43.644;-79.438;2022-12-18T05:13:23;23.00;31.20
33580;DHT22;19909;43.644;-79.438;2022-12-18T05:15:54;23.00;31.20
33580;DHT22;19909;43.644;-79.438;2022-12-18T05:18:23;22.90;31.20
33580;DHT22;19909;43.644;-79.438;2022-12-18T05:20:52;22.90;31.20
33580;DHT22;19909;43.644;-79.438;2022-12-18T05:23:22;23.00;31.30
33580;DHT22;19909;43.644;-79.438;2022-12-18T05:25:59;23.00;31.30
33580;DHT22;19909;43.644;-79.438;2022-12-18T05:28:36;23.00;31.30
33580;DHT22;19909;43.644;-79.438;2022-12-18T05:31:04;23.10;31.40
33580;DHT22;19909;43.644;-79.438;2022-12-18T05:33:35;23.10;31.20
33580;DHT22;19909;43.644;-79.438;2022-12-18T05:36:04;23.20;31.10
33580;DHT22;19909;43.644;-79.438;2022-12-18T05:38:36;23.20;31.20
33580;DHT22;19909;43.644;-79.438;2022-12-18T05:41:04;23.10;31.10
33580;DHT22;19909;43.644;-79.438;2022-12-18T05:43:33;23.10;31.20
33580;DHT22;19909;43.644;-79.438;2022-12-18T05:46:07;23.10;31.20
33580;DHT22;19909;43.644;-79.438;2022-12-18T05:48:34;23.10;31.20
33580;DHT22;19909;43.644;-79.438;2022-12-18T05:51:10;23.00;31.10
33580;DHT22;19909;43.644;-79.438;2022-12-18T05:53:37;23.00;31.10
33580;DHT22;19909;43.644;-79.438;2022-12-18T05:56:05;22.90;31.10
33580;DHT22;19909;43.644;-79.438;2022-12-18T05:58:33;22.90;31.10
33580;DHT22;19909;43.644;-79.438;2022-12-18T06:01:17;22.90;31.40
33580;DHT22;19909;43.644;-79.438;2022-12-18T06:03:45;22.80;31.30
33580;DHT22;19909;43.644;-79.438;2022-12-18T06:08:41;22.80;31.20
33580;DHT22;19909;43.644;-79.438;2022-12-18T06:11:09;22.80;31.30
33580;DHT22;19909;43.644;-79.438;2022-12-18T06:13:35;22.70;31.40
33580;DHT22;19909;43.644;-79.438;2022-12-18T06:16:04;22.70;31.40
33580;DHT22;19909;43.644;-79.438;2022-12-18T06:18:32;22.70;31.50
33580;DHT22;19909;43.644;-79.438;2022-12-18T06:21:00;22.70;31.30
33580;DHT22;19909;43.644;-79.438;2022-12-18T06:23:28;22.70;31.30
33580;DHT22;19909;43.644;-79.438;2022-12-18T06:25:57;22.70;31.30
33580;DHT22;19909;43.644;-79.438;2022-12-18T06:28:29;22.80;31.90
33580;DHT22;19909;43.644;-79.438;2022-12-18T06:30:56;22.80;31.50
33580;DHT22;19909;43.644;-79.438;2022-12-18T06:33:26;22.90;31.60
33580;DHT22;19909;43.644;-79.438;2022-12-18T06:36:06;22.90;31.30
33580;DHT22;19909;43.644;-79.438;2022-12-18T06:38:40;22.90;31.20
33580;DHT22;19909;43.644;-79.438;2022-12-18T06:41:16;23.00;31.20
33580;DHT22;19909;43.644;-79.438;2022-12-18T06:43:46;22.90;31.30
33580;DHT22;19909;43.644;-79.438;2022-12-18T06:46:15;22.90;31.40
33580;DHT22;19909;43.644;-79.438;2022-12-18T06:48:42;22.90;31.30
33580;DHT22;19909;43.644;-79.438;2022-12-18T06:51:30;22.80;31.30
33580;DHT22;19909;43.644;-79.438;2022-12-18T06:53:59;22.80;31.30
33580;DHT22;19909;43.644;-79.438;2022-12-18T06:56:27;22.80;31.40
33580;DHT22;19909;43.644;-79.438;2022-12-18T06:58:54;22.80;31.30
33580;DHT22;19909;43.644;-79.438;2022-12-18T07:01:22;22.80;31.40
33580;DHT22;19909;43.644;-79.438;2022-12-18T07:04:05;22.70;31.50
33580;DHT22;19909;43.644;-79.438;2022-12-18T07:06:40;22.70;31.60
33580;DHT22;19909;43.644;-79.438;2022-12-18T07:09:06;22.70;31.50
33580;DHT22;19909;43.644;-79.438;2022-12-18T07:11:34;22.70;31.40
33580;DHT22;19909;43.644;-79.438;2022-12-18T07:14:02;22.70;31.50
33580;DHT22;19909;43.644;-79.438;2022-12-18T07:16:29;22.70;31.50
33580;DHT22;19909;43.644;-79.438;2022-12-18T07:18:56;22.80;31.60
33580;DHT22;19909;43.644;-79.438;2022-12-18T07:21:26;22.80;31.40
33580;DHT22;19909;43.644;-79.438;2022-12-18T07:23:55;22.90;31.40
33580;DHT22;19909;43.644;-79.438;2022-12-18T07:26:27;22.90;31.30
33580;DHT22;19909;43.644;-79.438;2022-12-18T07:28:57;22.90;31.90
33580;DHT22;19909;43.644;-79.438;2022-12-18T07:31:25;22.90;31.30
33580;DHT22;19909;43.644;-79.438;2022-12-18T07:33:52;22.80;31.30
33580;DHT22;19909;43.644;-79.438;2022-12-18T07:36:19;22.80;31.40
33580;DHT22;19909;43.644;-79.438;2022-12-18T07:38:48;22.80;31.90
33580;DHT22;19909;43.644;-79.438;2022-12-18T07:41:17;22.80;31.40
33580;DHT22;19909;43.644;-79.438;2022-12-18T07:43:45;22.70;31.40
33580;DHT22;19909;43.644;-79.438;2022-12-18T07:46:17;22.70;31.40
33580;DHT22;19909;43.644;-79.438;2022-12-18T07:49:08;22.70;31.40
33580;DHT22;19909;43.644;-79.438;2022-12-18T07:51:35;22.60;31.30
33580;DHT22;19909;43.644;-79.438;2022-12-18T07:54:01;22.60;31.30
33580;DHT22;19909;43.644;-79.438;2022-12-18T07:56:37;22.60;31.40
33580;DHT22;19909;43.644;-79.438;2022-12-18T07:59:04;22.60;31.40
33580;DHT22;19909;43.644;-79.438;2022-12-18T08:01:31;22.60;31.50
33580;DHT22;19909;43.644;-79.438;2022-12-18T08:03:57;22.50;31.50
33580;DHT22;19909;43.644;-79.438;2022-12-18T08:06:25;22.50;31.40
33580;DHT22;19909;43.644;-79.438;2022-12-18T08:08:52;22.60;31.40
33580;DHT22;19909;43.644;-79.438;2022-12-18T08:11:21;22.60;31.50
33580;DHT22;19909;43.644;-79.438;2022-12-18T08:13:48;22.60;31.50
33580;DHT22;19909;43.644;-79.438;2022-12-18T08:16:24;22.70;31.60
33580;DHT22;19909;43.644;-79.438;2022-12-18T08:18:52;22.80;31.60
33580;DHT22;19909;43.644;-79.438;2022-12-18T08:21:26;22.80;31.60
33580;DHT22;19909;43.644;-79.438;2022-12-18T08:23:55;22.90;31.40
33580;DHT22;19909;43.644;-79.438;2022-12-18T08:26:23;22.90;31.30
33580;DHT22;19909;43.644;-79.438;2022-12-18T08:28:50;22.90;31.40
33580;DHT22;19909;43.644;-79.438;2022-12-18T08:31:19;22.90;31.40
33580;DHT22;19909;43.644;-79.438;2022-12-18T08:33:52;22.90;31.40
33580;DHT22;19909;43.644;-79.438;2022-12-18T08:36:33;22.80;31.30
33580;DHT22;19909;43.644;-79.438;2022-12-18T08:39:10;22.80;31.30
33580;DHT22;19909;43.644;-79.438;2022-12-18T08:41:37;22.80;31.30
33580;DHT22;19909;43.644;-79.438;2022-12-18T08:44:03;22.70;31.20
33580;DHT22;19909;43.644;-79.438;2022-12-18T08:46:50;22.70;31.30
33580;DHT22;19909;43.644;-79.438;2022-12-18T08:49:17;22.70;31.20
33580;DHT22;19909;43.644;-79.438;2022-12-18T08:51:43;22.60;31.30
33580;DHT22;19909;43.644;-79.438;2022-12-18T08:54:13;22.60;31.30
33580;DHT22;19909;43.644;-79.438;2022-12-18T08:56:40;22.60;31.30
33580;DHT22;19909;43.644;-79.438;2022-12-18T08:59:09;22.60;31.40
33580;DHT22;19909;43.644;-79.438;2022-12-18T09:01:35;22.60;31.30
33580;DHT22;19909;43.644;-79.438;2022-12-18T09:04:02;22.60;31.30
33580;DHT22;19909;43.644;-79.438;2022-12-18T09:06:29;22.60;31.30
33580;DHT22;19909;43.644;-79.438;2022-12-18T09:08:59;22.60;31.30
33580;DHT22;19909;43.644;-79.438;2022-12-18T09:11:28;22.70;31.40
33580;DHT22;19909;43.644;-79.438;2022-12-18T09:13:55;22.70;31.50
33580;DHT22;19909;43.644;-79.438;2022-12-18T09:16:25;22.80;31.30
33580;DHT22;19909;43.644;-79.438;2022-12-18T09:18:51;22.80;31.10
33580;DHT22;19909;43.644;-79.438;2022-12-18T09:21:27;22.80;31.20
33580;DHT22;19909;43.644;-79.438;2022-12-18T09:24:02;22.80;31.20
33580;DHT22;19909;43.644;-79.438;2022-12-18T09:26:32;22.80;31.20
33580;DHT22;19909;43.644;-79.438;2022-12-18T09:29:01;22.80;31.20
33580;DHT22;19909;43.644;-79.438;2022-12-18T09:31:30;22.80;31.30
33580;DHT22;19909;43.644;-79.438;2022-12-18T09:33:57;22.70;31.30
33580;DHT22;19909;43.644;-79.438;2022-12-18T09:36:23;22.70;31.20
33580;DHT22;19909;43.644;-79.438;2022-12-18T09:38:50;22.70;31.30
33580;DHT22;19909;43.644;-79.438;2022-12-18T09:41:43;22.60;31.30
33580;DHT22;19909;43.644;-79.438;2022-12-18T09:44:36;22.60;31.30
33580;DHT22;19909;43.644;-79.438;2022-12-18T09:50:30;22.60;31.20
33580;DHT22;19909;43.644;-79.438;2022-12-18T09:53:02;22.60;31.20
33580;DHT22;19909;43.644;-79.438;2022-12-18T09:55:44;22.60;31.30
33580;DHT22;19909;43.644;-79.438;2022-12-18T09:58:37;22.70;31.40
33580;DHT22;19909;43.644;-79.438;2022-12-18T10:01:16;22.70;31.50
33580;DHT22;19909;43.644;-79.438;2022-12-18T10:03:45;22.80;31.30
33580;DHT22;19909;43.644;-79.438;2022-12-18T10:07:03;22.90;31.20
33580;DHT22;19909;43.644;-79.438;2022-12-18T10:12:45;22.80;31.30
33580;DHT22;19909;43.644;-79.438;2022-12-18T10:15:23;22.80;31.30
33580;DHT22;19909;43.644;-79.438;2022-12-18T10:20:43;22.80;31.30
33580;DHT22;19909;43.644;-79.438;2022-12-18T10:26:05;22.70;31.30
33580;DHT22;19909;43.644;-79.438;2022-12-18T10:28:35;22.70;31.30
33580;DHT22;19909;43.644;-79.438;2022-12-18T10:31:05;22.70;31.30
33580;DHT22;19909;43.644;-79.438;2022-12-18T10:33:33;22.60;31.30
33580;DHT22;19909;43.644;-79.438;2022-12-18T10:36:01;22.60;31.40
33580;DHT22;19909;43.644;-79.438;2022-12-18T10:38:31;22.60;31.30
33580;DHT22;19909;43.644;-79.438;2022-12-18T10:41:22;22.60;31.10
33580;DHT22;19909;43.644;-79.438;2022-12-18T10:46:45;22.70;31.40
33580;DHT22;19909;43.644;-79.438;2022-12-18T10:49:25;22.80;31.40
33580;DHT22;19909;43.644;-79.438;2022-12-18T10:52:05;22.80;31.30
33580;DHT22;19909;43.644;-79.438;2022-12-18T10:54:34;22.90;31.20
33580;DHT22;19909;43.644;-79.438;2022-12-18T10:57:16;22.90;31.10
33580;DHT22;19909;43.644;-79.438;2022-12-18T10:59:55;22.90;31.20
33580;DHT22;19909;43.644;-79.438;2022-12-18T11:02:35;22.90;31.20
33580;DHT22;19909;43.644;-79.438;2022-12-18T11:05:09;22.80;31.10
33580;DHT22;19909;43.644;-79.438;2022-12-18T11:07:50;22.80;31.10
33580;DHT22;19909;43.644;-79.438;2022-12-18T11:10:18;22.80;31.10
33580;DHT22;19909;43.644;-79.438;2022-12-18T11:12:45;22.80;31.20
33580;DHT22;19909;43.644;-79.438;2022-12-18T11:15:29;22.70;31.10
33580;DHT22;19909;43.644;-79.438;2022-12-18T11:17:57;22.70;31.20
33580;DHT22;19909;43.644;-79.438;2022-12-18T11:20:35;22.70;31.10
33580;DHT22;19909;43.644;-79.438;2022-12-18T11:23:11;22.70;31.10
33580;DHT22;19909;43.644;-79.438;2022-12-18T11:25:39;22.70;31.00
33580;DHT22;19909;43.644;-79.438;2022-12-18T11:28:28;22.60;31.20
33580;DHT22;19909;43.644;-79.438;2022-12-18T11:31:28;22.60;31.20
33580;DHT22;19909;43.644;-79.438;2022-12-18T11:36:36;22.50;31.10
33580;DHT22;19909;43.644;-79.438;2022-12-18T11:39:40;22.50;31.00
33580;DHT22;19909;43.644;-79.438;2022-12-18T11:42:20;22.60;31.10
33580;DHT22;19909;43.644;-79.438;2022-12-18T11:45:22;22.60;31.20
33580;DHT22;19909;43.644;-79.438;2022-12-18T11:48:14;22.70;31.30
33580;DHT22;19909;43.644;-79.438;2022-12-18T11:50:57;22.80;31.30
33580;DHT22;19909;43.644;-79.438;2022-12-18T11:53:35;22.80;31.00
33580;DHT22;19909;43.644;-79.438;2022-12-18T11:56:31;22.80;31.00
33580;DHT22;19909;43.644;-79.438;2022-12-18T12:10:39;22.70;31.00
33580;DHT22;19909;43.644;-79.438;2022-12-18T12:16:27;22.70;31.20
33580;DHT22;19909;43.644;-79.438;2022-12-18T12:21:56;22.60;31.00
33580;DHT22;19909;43.644;-79.438;2022-12-18T12:25:10;22.50;30.90
33580;DHT22;19909;43.644;-79.438;2022-12-18T12:30:21;22.50;31.10
33580;DHT22;19909;43.644;-79.438;2022-12-18T12:35:59;22.40;30.90
33580;DHT22;19909;43.644;-79.438;2022-12-18T12:38:41;22.50;31.00
33580;DHT22;19909;43.644;-79.438;2022-12-18T12:41:13;22.50;31.10
33580;DHT22;19909;43.644;-79.438;2022-12-18T12:44:03;22.60;31.20
33580;DHT22;19909;43.644;-79.438;2022-12-18T12:46:35;22.70;31.30
33580;DHT22;19909;43.644;-79.438;2022-12-18T12:49:09;22.70;31.00
33580;DHT22;19909;43.644;-79.438;2022-12-18T12:51:43;22.80;30.90
33580;DHT22;19909;43.644;-79.438;2022-12-18T12:54:25;22.80;31.00
33580;DHT22;19909;43.644;-79.438;2022-12-18T12:57:14;22.70;31.00
33580;DHT22;19909;43.644;-79.438;2022-12-18T13:00:08;22.80;30.90
33580;DHT22;19909;43.644;-79.438;2022-12-18T13:05:34;22.70;31.00
33580;DHT22;19909;43.644;-79.438;2022-12-18T13:08:10;22.70;31.00
33580;DHT22;19909;43.644;-79.438;2022-12-18T13:10:42;22.60;31.00
33580;DHT22;19909;43.644;-79.438;2022-12-18T13:13:10;22.60;31.10
33580;DHT22;19909;43.644;-79.438;2022-12-18T13:15:41;22.60;31.10
33580;DHT22;19909;43.644;-79.438;2022-12-18T13:18:20;22.50;31.10
33580;DHT22;19909;43.644;-79.438;2022-12-18T13:23:34;22.50;30.90
33580;DHT22;19909;43.644;-79.438;2022-12-18T13:28:52;22.60;31.00
33580;DHT22;19909;43.644;-79.438;2022-12-18T13:34:20;22.70;31.00
33580;DHT22;19909;43.644;-79.438;2022-12-18T13:36:54;22.80;30.90
33580;DHT22;19909;43.644;-79.438;2022-12-18T13:39:23;22.80;30.90
33580;DHT22;19909;43.644;-79.438;2022-12-18T13:44:38;22.70;30.90
33580;DHT22;19909;43.644;-79.438;2022-12-18T13:47:33;22.70;30.90
33580;DHT22;19909;43.644;-79.438;2022-12-18T13:50:01;22.70;30.90
33580;DHT22;19909;43.644;-79.438;2022-12-18T13:52:37;22.70;30.90
33580;DHT22;19909;43.644;-79.438;2022-12-18T13:55:07;22.60;30.80
33580;DHT22;19909;43.644;-79.438;2022-12-18T13:57:40;22.70;30.90
33580;DHT22;19909;43.644;-79.438;2022-12-18T14:02:49;22.60;31.00
33580;DHT22;19909;43.644;-79.438;2022-12-18T14:05:30;22.60;30.80
33580;DHT22;19909;43.644;-79.438;2022-12-18T14:08:14;22.50;30.70
33580;DHT22;19909;43.644;-79.438;2022-12-18T14:10:45;22.50;30.70
33580;DHT22;19909;43.644;-79.438;2022-12-18T14:13:24;22.50;30.80
33580;DHT22;19909;43.644;-79.438;2022-12-18T14:15:52;22.40;30.80
33580;DHT22;19909;43.644;-79.438;2022-12-18T14:20:59;22.40;30.70
33580;DHT22;19909;43.644;-79.438;2022-12-18T14:23:40;22.50;30.80
33580;DHT22;19909;43.644;-79.438;2022-12-18T14:26:31;22.50;30.80
33580;DHT22;19909;43.644;-79.438;2022-12-18T14:29:01;22.60;30.90
33580;DHT22;19909;43.644;-79.438;2022-12-18T14:31:43;22.60;30.90
33580;DHT22;19909;43.644;-79.438;2022-12-18T14:34:19;22.70;31.00
33580;DHT22;19909;43.644;-79.438;2022-12-18T14:36:54;22.80;30.80
33580;DHT22;19909;43.644;-79.438;2022-12-18T14:39:27;22.80;30.80
33580;DHT22;19909;43.644;-79.438;2022-12-18T14:41:55;22.80;30.90
33580;DHT22;19909;43.644;-79.438;2022-12-18T14:44:22;22.70;30.80
33580;DHT22;19909;43.644;-79.438;2022-12-18T14:46:51;22.70;30.80
33580;DHT22;19909;43.644;-79.438;2022-12-18T14:49:33;22.70;30.80
33580;DHT22;19909;43.644;-79.438;2022-12-18T14:52:01;22.70;30.80
33580;DHT22;19909;43.644;-79.438;2022-12-18T14:54:28;22.60;30.80
33580;DHT22;19909;43.644;-79.438;2022-12-18T14:59:28;22.50;30.80
33580;DHT22;19909;43.644;-79.438;2022-12-18T15:07:21;22.50;30.90
33580;DHT22;19909;43.644;-79.438;2022-12-18T15:13:08;22.40;30.80
33580;DHT22;19909;43.644;-79.438;2022-12-18T15:20:56;22.40;30.60
33580;DHT22;19909;43.644;-79.438;2022-12-18T15:23:35;22.30;30.60
33580;DHT22;19909;43.644;-79.438;2022-12-18T15:26:13;22.40;31.30
33580;DHT22;19909;43.644;-79.438;2022-12-18T15:28:50;22.40;30.60
33580;DHT22;19909;43.644;-79.438;2022-12-18T15:36:20;22.60;30.80
33580;DHT22;19909;43.644;-79.438;2022-12-18T15:38:50;22.60;30.70
33580;DHT22;19909;43.644;-79.438;2022-12-18T15:41:20;22.60;30.70
33580;DHT22;19909;43.644;-79.438;2022-12-18T15:43:52;22.60;30.80
33580;DHT22;19909;43.644;-79.438;2022-12-18T15:46:24;22.50;30.80
33580;DHT22;19909;43.644;-79.438;2022-12-18T15:48:54;22.50;31.00
33580;DHT22;19909;43.644;-79.438;2022-12-18T15:51:31;22.50;30.80
33580;DHT22;19909;43.644;-79.438;2022-12-18T15:54:00;22.50;30.80
33580;DHT22;19909;43.644;-79.438;2022-12-18T15:56:30;22.50;31.30
33580;DHT22;19909;43.644;-79.438;2022-12-18T15:59:18;22.40;30.80
33580;DHT22;19909;43.644;-79.438;2022-12-18T16:01:51;22.40;30.80
33580;DHT22;19909;43.644;-79.438;2022-12-18T16:04:20;22.40;30.80
33580;DHT22;19909;43.644;-79.438;2022-12-18T16:06:48;22.40;30.70
33580;DHT22;19909;43.644;-79.438;2022-12-18T16:09:16;22.40;30.70
33580;DHT22;19909;43.644;-79.438;2022-12-18T16:11:43;22.40;30.60
33580;DHT22;19909;43.644;-79.438;2022-12-18T16:14:21;22.30;30.60
33580;DHT22;19909;43.644;-79.438;2022-12-18T16:16:51;22.30;30.60
33580;DHT22;19909;43.644;-79.438;2022-12-18T16:19:18;22.30;30.80
33580;DHT22;19909;43.644;-79.438;2022-12-18T16:21:49;22.30;30.70
33580;DHT22;19909;43.644;-79.438;2022-12-18T16:24:24;22.30;30.60
33580;DHT22;19909;43.644;-79.438;2022-12-18T16:26:55;22.40;30.60
33580;DHT22;19909;43.644;-79.438;2022-12-18T16:29:31;22.40;30.80
33580;DHT22;19909;43.644;-79.438;2022-12-18T16:32:00;22.40;30.80
33580;DHT22;19909;43.644;-79.438;2022-12-18T16:34:30;22.50;30.70
33580;DHT22;19909;43.644;-79.438;2022-12-18T16:37:02;22.50;30.60
33580;DHT22;19909;43.644;-79.438;2022-12-18T16:39:30;22.50;30.60
33580;DHT22;19909;43.644;-79.438;2022-12-18T16:41:58;22.60;30.80
33580;DHT22;19909;43.644;-79.438;2022-12-18T16:44:25;22.60;31.00
33580;DHT22;19909;43.644;-79.438;2022-12-18T16:46:52;22.60;30.70
33580;DHT22;19909;43.644;-79.438;2022-12-18T16:49:19;22.50;30.40
33580;DHT22;19909;43.644;-79.438;2022-12-18T16:51:46;22.50;30.70
33580;DHT22;19909;43.644;-79.438;2022-12-18T16:54:13;22.50;30.60
33580;DHT22;19909;43.644;-79.438;2022-12-18T16:56:40;22.40;30.50
33580;DHT22;19909;43.644;-79.438;2022-12-18T16:59:09;22.40;30.50
33580;DHT22;19909;43.644;-79.438;2022-12-18T17:01:36;22.40;30.50
33580;DHT22;19909;43.644;-79.438;2022-12-18T17:04:05;22.30;30.50
33580;DHT22;19909;43.644;-79.438;2022-12-18T17:06:34;22.30;30.40
33580;DHT22;19909;43.644;-79.438;2022-12-18T17:09:05;22.40;30.30
33580;DHT22;19909;43.644;-79.438;2022-12-18T17:11:33;22.40;30.40
33580;DHT22;19909;43.644;-79.438;2022-12-18T17:14:13;22.40;30.50
33580;DHT22;19909;43.644;-79.438;2022-12-18T17:16:44;22.40;30.60
33580;DHT22;19909;43.644;-79.438;2022-12-18T17:19:13;22.60;30.70
33580;DHT22;19909;43.644;-79.438;2022-12-18T17:21:47;22.60;30.50
33580;DHT22;19909;43.644;-79.438;2022-12-18T17:24:19;22.60;30.50
33580;DHT22;19909;43.644;-79.438;2022-12-18T17:26:46;22.60;30.60
33580;DHT22;19909;43.644;-79.438;2022-12-18T17:29:16;22.60;30.50
33580;DHT22;19909;43.644;-79.438;2022-12-18T17:31:43;22.60;30.50